Tebessa, Cheikh Larbi Tébessi Airport (DABS)

NameCheikh Larbi Tébessi Airport
CityTebessa
CountryAlgeria
ICAODABS
IATATEE
Altitude811 m
CoordinatesGoogle Map
Live Air TrafficLiveATC.net
METARDABS 192200Z 11004KT CAVOK 25/09 Q1019
2019-06-19 22:00:00 Wind: East (110°) 2.06 m/s - Visibility: > 10000 m - Weather: CAVOK - Temperature: 25 °C - Dew point: 9 °C - Humidity: 36.3% - Pressure: 1019 hPa
Statistics

The table below shows the detailed information of all flights to/from Tebessa, Cheikh Larbi Tébessi Airport (DABS).